sensor_id;sensor_type;location;lat;lon;timestamp;P1;durP1;ratioP1;P2;durP2;ratioP2
29550;SDS011;16488;52.396;10.696;2023-09-18T00:01:49;8.07;;;4.63;;
29550;SDS011;16488;52.396;10.696;2023-09-18T00:04:15;7.30;;;5.40;;
29550;SDS011;16488;52.396;10.696;2023-09-18T00:06:40;6.95;;;4.55;;
29550;SDS011;16488;52.396;10.696;2023-09-18T00:09:06;9.00;;;5.03;;
29550;SDS011;16488;52.396;10.696;2023-09-18T00:11:37;8.98;;;5.38;;
29550;SDS011;16488;52.396;10.696;2023-09-18T00:14:07;10.32;;;5.05;;
29550;SDS011;16488;52.396;10.696;2023-09-18T00:16:33;7.43;;;5.00;;
29550;SDS011;16488;52.396;10.696;2023-09-18T00:18:59;9.07;;;5.82;;
29550;SDS011;16488;52.396;10.696;2023-09-18T00:21:24;8.50;;;5.25;;
29550;SDS011;16488;52.396;10.696;2023-09-18T00:23:51;11.73;;;5.65;;
29550;SDS011;16488;52.396;10.696;2023-09-18T00:26:17;6.65;;;4.65;;
29550;SDS011;16488;52.396;10.696;2023-09-18T00:28:42;7.50;;;5.25;;
29550;SDS011;16488;52.396;10.696;2023-09-18T00:31:08;8.63;;;5.22;;
29550;SDS011;16488;52.396;10.696;2023-09-18T00:33:34;7.35;;;5.13;;
29550;SDS011;16488;52.396;10.696;2023-09-18T00:36:00;6.82;;;5.22;;
29550;SDS011;16488;52.396;10.696;2023-09-18T00:38:26;7.38;;;5.35;;
29550;SDS011;16488;52.396;10.696;2023-09-18T00:40:52;8.98;;;5.68;;
29550;SDS011;16488;52.396;10.696;2023-09-18T00:43:17;8.10;;;4.97;;
29550;SDS011;16488;52.396;10.696;2023-09-18T00:45:44;8.07;;;5.17;;
29550;SDS011;16488;52.396;10.696;2023-09-18T00:48:12;9.10;;;5.70;;
29550;SDS011;16488;52.396;10.696;2023-09-18T00:50:39;8.88;;;5.40;;
29550;SDS011;16488;52.396;10.696;2023-09-18T00:53:09;9.52;;;6.00;;
29550;SDS011;16488;52.396;10.696;2023-09-18T00:55:37;9.25;;;5.15;;
29550;SDS011;16488;52.396;10.696;2023-09-18T00:58:04;10.23;;;5.03;;
29550;SDS011;16488;52.396;10.696;2023-09-18T01:00:32;7.18;;;5.13;;
29550;SDS011;16488;52.396;10.696;2023-09-18T01:02:58;12.73;;;5.65;;
29550;SDS011;16488;52.396;10.696;2023-09-18T01:05:25;7.40;;;5.68;;
29550;SDS011;16488;52.396;10.696;2023-09-18T01:07:51;8.17;;;5.30;;
29550;SDS011;16488;52.396;10.696;2023-09-18T01:10:16;5.63;;;4.75;;
29550;SDS011;16488;52.396;10.696;2023-09-18T01:12:44;9.68;;;5.97;;
29550;SDS011;16488;52.396;10.696;2023-09-18T01:15:17;8.20;;;5.65;;
29550;SDS011;16488;52.396;10.696;2023-09-18T01:17:53;10.18;;;5.45;;
29550;SDS011;16488;52.396;10.696;2023-09-18T01:20:19;8.15;;;4.70;;
29550;SDS011;16488;52.396;10.696;2023-09-18T01:22:45;8.35;;;5.45;;
29550;SDS011;16488;52.396;10.696;2023-09-18T01:25:10;7.93;;;5.53;;
29550;SDS011;16488;52.396;10.696;2023-09-18T01:27:36;10.40;;;4.63;;
29550;SDS011;16488;52.396;10.696;2023-09-18T01:30:02;6.03;;;5.22;;
29550;SDS011;16488;52.396;10.696;2023-09-18T01:32:29;8.15;;;5.72;;
29550;SDS011;16488;52.396;10.696;2023-09-18T01:34:57;10.45;;;5.03;;
29550;SDS011;16488;52.396;10.696;2023-09-18T01:37:26;9.68;;;5.18;;
29550;SDS011;16488;52.396;10.696;2023-09-18T01:39:54;6.22;;;5.18;;
29550;SDS011;16488;52.396;10.696;2023-09-18T01:42:22;8.10;;;5.40;;
29550;SDS011;16488;52.396;10.696;2023-09-18T01:44:49;11.55;;;5.72;;
29550;SDS011;16488;52.396;10.696;2023-09-18T01:47:15;8.70;;;5.60;;
29550;SDS011;16488;52.396;10.696;2023-09-18T01:49:43;6.40;;;5.07;;
29550;SDS011;16488;52.396;10.696;2023-09-18T01:52:09;8.05;;;5.45;;
29550;SDS011;16488;52.396;10.696;2023-09-18T01:57:01;7.60;;;4.95;;
29550;SDS011;16488;52.396;10.696;2023-09-18T01:59:28;7.43;;;5.45;;
29550;SDS011;16488;52.396;10.696;2023-09-18T02:04:20;12.40;;;5.65;;
29550;SDS011;16488;52.396;10.696;2023-09-18T02:06:46;10.95;;;6.43;;
29550;SDS011;16488;52.396;10.696;2023-09-18T02:09:14;7.68;;;6.47;;
29550;SDS011;16488;52.396;10.696;2023-09-18T02:11:41;11.18;;;6.28;;
29550;SDS011;16488;52.396;10.696;2023-09-18T02:14:09;9.93;;;6.35;;
29550;SDS011;16488;52.396;10.696;2023-09-18T02:16:38;9.02;;;6.53;;
29550;SDS011;16488;52.396;10.696;2023-09-18T02:19:08;8.65;;;7.00;;
29550;SDS011;16488;52.396;10.696;2023-09-18T02:24:00;10.32;;;6.03;;
29550;SDS011;16488;52.396;10.696;2023-09-18T02:28:52;7.47;;;6.18;;
29550;SDS011;16488;52.396;10.696;2023-09-18T02:31:19;8.73;;;5.88;;
29550;SDS011;16488;52.396;10.696;2023-09-18T02:33:45;9.25;;;5.93;;
29550;SDS011;16488;52.396;10.696;2023-09-18T02:36:11;8.02;;;5.88;;
29550;SDS011;16488;52.396;10.696;2023-09-18T02:38:37;10.88;;;6.00;;
29550;SDS011;16488;52.396;10.696;2023-09-18T02:41:03;10.03;;;6.70;;
29550;SDS011;16488;52.396;10.696;2023-09-18T02:43:28;9.85;;;6.75;;
29550;SDS011;16488;52.396;10.696;2023-09-18T02:45:54;10.97;;;7.00;;
29550;SDS011;16488;52.396;10.696;2023-09-18T02:48:20;15.55;;;6.20;;
29550;SDS011;16488;52.396;10.696;2023-09-18T02:50:45;9.50;;;6.57;;
29550;SDS011;16488;52.396;10.696;2023-09-18T02:53:17;13.35;;;7.05;;
29550;SDS011;16488;52.396;10.696;2023-09-18T02:55:44;13.18;;;6.03;;
29550;SDS011;16488;52.396;10.696;2023-09-18T02:58:10;11.23;;;6.18;;
29550;SDS011;16488;52.396;10.696;2023-09-18T03:00:40;9.95;;;6.35;;
29550;SDS011;16488;52.396;10.696;2023-09-18T03:03:10;8.43;;;6.10;;
29550;SDS011;16488;52.396;10.696;2023-09-18T03:05:36;10.40;;;5.50;;
29550;SDS011;16488;52.396;10.696;2023-09-18T03:08:02;6.75;;;5.20;;
29550;SDS011;16488;52.396;10.696;2023-09-18T03:12:57;8.57;;;5.50;;
29550;SDS011;16488;52.396;10.696;2023-09-18T03:15:23;6.82;;;5.53;;
29550;SDS011;16488;52.396;10.696;2023-09-18T03:17:50;9.23;;;5.05;;
29550;SDS011;16488;52.396;10.696;2023-09-18T03:20:15;9.95;;;6.57;;
29550;SDS011;16488;52.396;10.696;2023-09-18T03:22:41;19.38;;;5.95;;
29550;SDS011;16488;52.396;10.696;2023-09-18T03:25:07;7.80;;;6.15;;
29550;SDS011;16488;52.396;10.696;2023-09-18T03:27:32;10.52;;;5.75;;
29550;SDS011;16488;52.396;10.696;2023-09-18T03:29:58;11.73;;;6.05;;
29550;SDS011;16488;52.396;10.696;2023-09-18T03:32:23;10.25;;;6.15;;
29550;SDS011;16488;52.396;10.696;2023-09-18T03:34:52;8.57;;;6.03;;
29550;SDS011;16488;52.396;10.696;2023-09-18T03:37:18;10.45;;;6.00;;
29550;SDS011;16488;52.396;10.696;2023-09-18T03:39:44;8.80;;;6.57;;
29550;SDS011;16488;52.396;10.696;2023-09-18T03:42:09;10.32;;;5.82;;
29550;SDS011;16488;52.396;10.696;2023-09-18T03:44:35;10.70;;;5.73;;
29550;SDS011;16488;52.396;10.696;2023-09-18T03:47:01;8.52;;;6.00;;
29550;SDS011;16488;52.396;10.696;2023-09-18T03:49:28;8.52;;;5.63;;
29550;SDS011;16488;52.396;10.696;2023-09-18T03:51:54;9.63;;;7.20;;
29550;SDS011;16488;52.396;10.696;2023-09-18T03:54:20;10.07;;;6.28;;
29550;SDS011;16488;52.396;10.696;2023-09-18T03:56:45;9.38;;;6.05;;
29550;SDS011;16488;52.396;10.696;2023-09-18T03:59:11;11.45;;;5.60;;
29550;SDS011;16488;52.396;10.696;2023-09-18T04:04:03;13.45;;;7.65;;
29550;SDS011;16488;52.396;10.696;2023-09-18T04:06:40;9.43;;;6.45;;
29550;SDS011;16488;52.396;10.696;2023-09-18T04:09:06;9.57;;;6.38;;
29550;SDS011;16488;52.396;10.696;2023-09-18T04:11:32;10.60;;;6.38;;
29550;SDS011;16488;52.396;10.696;2023-09-18T04:13:58;13.13;;;6.47;;
29550;SDS011;16488;52.396;10.696;2023-09-18T04:16:28;13.35;;;5.55;;
29550;SDS011;16488;52.396;10.696;2023-09-18T04:18:55;9.88;;;5.75;;
29550;SDS011;16488;52.396;10.696;2023-09-18T04:21:21;8.85;;;5.47;;
29550;SDS011;16488;52.396;10.696;2023-09-18T04:23:47;8.65;;;5.72;;
29550;SDS011;16488;52.396;10.696;2023-09-18T04:26:13;7.88;;;5.45;;
29550;SDS011;16488;52.396;10.696;2023-09-18T04:28:41;11.02;;;5.25;;
29550;SDS011;16488;52.396;10.696;2023-09-18T04:31:07;9.63;;;5.95;;
29550;SDS011;16488;52.396;10.696;2023-09-18T04:33:32;10.07;;;6.00;;
29550;SDS011;16488;52.396;10.696;2023-09-18T04:35:58;11.00;;;6.45;;
29550;SDS011;16488;52.396;10.696;2023-09-18T04:38:24;11.07;;;6.35;;
29550;SDS011;16488;52.396;10.696;2023-09-18T04:40:49;8.80;;;5.70;;
29550;SDS011;16488;52.396;10.696;2023-09-18T04:43:23;13.55;;;5.47;;
29550;SDS011;16488;52.396;10.696;2023-09-18T04:45:49;9.95;;;5.15;;
29550;SDS011;16488;52.396;10.696;2023-09-18T04:48:15;6.97;;;5.20;;
29550;SDS011;16488;52.396;10.696;2023-09-18T04:50:41;7.70;;;5.78;;
29550;SDS011;16488;52.396;10.696;2023-09-18T04:53:08;8.52;;;5.18;;
29550;SDS011;16488;52.396;10.696;2023-09-18T04:55:34;5.78;;;4.88;;
29550;SDS011;16488;52.396;10.696;2023-09-18T04:57:59;13.10;;;6.00;;
29550;SDS011;16488;52.396;10.696;2023-09-18T05:00:25;6.80;;;4.68;;
29550;SDS011;16488;52.396;10.696;2023-09-18T05:02:51;9.02;;;5.05;;
29550;SDS011;16488;52.396;10.696;2023-09-18T05:05:17;10.45;;;5.05;;
29550;SDS011;16488;52.396;10.696;2023-09-18T05:07:43;12.65;;;5.70;;
29550;SDS011;16488;52.396;10.696;2023-09-18T05:10:09;10.57;;;5.45;;
29550;SDS011;16488;52.396;10.696;2023-09-18T05:12:35;10.05;;;6.13;;
29550;SDS011;16488;52.396;10.696;2023-09-18T05:15:04;8.07;;;5.47;;
29550;SDS011;16488;52.396;10.696;2023-09-18T05:17:40;21.58;;;6.35;;
29550;SDS011;16488;52.396;10.696;2023-09-18T05:20:07;8.93;;;5.57;;
29550;SDS011;16488;52.396;10.696;2023-09-18T05:22:35;7.07;;;5.68;;
29550;SDS011;16488;52.396;10.696;2023-09-18T05:25:01;10.73;;;6.00;;
29550;SDS011;16488;52.396;10.696;2023-09-18T05:27:26;5.75;;;4.43;;
29550;SDS011;16488;52.396;10.696;2023-09-18T05:29:52;7.40;;;5.05;;
29550;SDS011;16488;52.396;10.696;2023-09-18T05:32:17;5.10;;;4.47;;
29550;SDS011;16488;52.396;10.696;2023-09-18T05:34:43;6.80;;;4.50;;
29550;SDS011;16488;52.396;10.696;2023-09-18T05:37:08;7.35;;;5.00;;
29550;SDS011;16488;52.396;10.696;2023-09-18T05:39:35;13.77;;;5.60;;
29550;SDS011;16488;52.396;10.696;2023-09-18T05:42:01;11.10;;;5.30;;
29550;SDS011;16488;52.396;10.696;2023-09-18T05:44:27;6.38;;;4.85;;
29550;SDS011;16488;52.396;10.696;2023-09-18T05:46:52;11.38;;;5.45;;
29550;SDS011;16488;52.396;10.696;2023-09-18T05:49:18;12.13;;;6.03;;
29550;SDS011;16488;52.396;10.696;2023-09-18T05:51:43;9.65;;;5.13;;
29550;SDS011;16488;52.396;10.696;2023-09-18T05:54:09;7.75;;;5.40;;
29550;SDS011;16488;52.396;10.696;2023-09-18T05:56:35;9.17;;;5.60;;
29550;SDS011;16488;52.396;10.696;2023-09-18T05:59:00;11.60;;;5.27;;
29550;SDS011;16488;52.396;10.696;2023-09-18T06:01:26;10.88;;;5.65;;
29550;SDS011;16488;52.396;10.696;2023-09-18T06:03:52;9.52;;;5.70;;
29550;SDS011;16488;52.396;10.696;2023-09-18T06:06:18;7.77;;;4.50;;
29550;SDS011;16488;52.396;10.696;2023-09-18T06:08:44;10.80;;;5.43;;
29550;SDS011;16488;52.396;10.696;2023-09-18T06:11:09;8.73;;;4.53;;
29550;SDS011;16488;52.396;10.696;2023-09-18T06:13:35;7.13;;;4.73;;
29550;SDS011;16488;52.396;10.696;2023-09-18T06:16:04;6.75;;;4.78;;
29550;SDS011;16488;52.396;10.696;2023-09-18T06:18:33;11.57;;;5.07;;
29550;SDS011;16488;52.396;10.696;2023-09-18T06:21:00;6.30;;;5.03;;
29550;SDS011;16488;52.396;10.696;2023-09-18T06:23:26;7.18;;;4.85;;
29550;SDS011;16488;52.396;10.696;2023-09-18T06:25:51;9.55;;;4.85;;
29550;SDS011;16488;52.396;10.696;2023-09-18T06:28:21;7.82;;;4.88;;
29550;SDS011;16488;52.396;10.696;2023-09-18T06:30:47;5.88;;;4.30;;
29550;SDS011;16488;52.396;10.696;2023-09-18T06:33:13;11.65;;;5.43;;
29550;SDS011;16488;52.396;10.696;2023-09-18T06:35:39;6.40;;;4.85;;
29550;SDS011;16488;52.396;10.696;2023-09-18T06:38:04;7.47;;;4.78;;
29550;SDS011;16488;52.396;10.696;2023-09-18T06:40:31;6.10;;;4.28;;
29550;SDS011;16488;52.396;10.696;2023-09-18T06:43:00;5.68;;;5.07;;
29550;SDS011;16488;52.396;10.696;2023-09-18T06:45:26;8.98;;;4.95;;
29550;SDS011;16488;52.396;10.696;2023-09-18T06:50:18;5.57;;;4.72;;
29550;SDS011;16488;52.396;10.696;2023-09-18T06:52:44;6.55;;;4.70;;
29550;SDS011;16488;52.396;10.696;2023-09-18T06:55:11;11.70;;;5.03;;
29550;SDS011;16488;52.396;10.696;2023-09-18T06:57:37;9.73;;;5.15;;
29550;SDS011;16488;52.396;10.696;2023-09-18T07:00:03;5.82;;;4.25;;
29550;SDS011;16488;52.396;10.696;2023-09-18T07:02:30;8.80;;;4.72;;
29550;SDS011;16488;52.396;10.696;2023-09-18T07:04:56;6.90;;;4.75;;
29550;SDS011;16488;52.396;10.696;2023-09-18T07:07:21;8.47;;;4.83;;
29550;SDS011;16488;52.396;10.696;2023-09-18T07:09:50;6.25;;;4.47;;
29550;SDS011;16488;52.396;10.696;2023-09-18T07:12:16;6.88;;;4.72;;
29550;SDS011;16488;52.396;10.696;2023-09-18T07:14:46;5.15;;;4.35;;
29550;SDS011;16488;52.396;10.696;2023-09-18T07:19:37;7.60;;;4.45;;
29550;SDS011;16488;52.396;10.696;2023-09-18T07:22:03;5.90;;;4.43;;
29550;SDS011;16488;52.396;10.696;2023-09-18T07:24:29;5.88;;;4.25;;
29550;SDS011;16488;52.396;10.696;2023-09-18T07:26:54;7.65;;;4.78;;
29550;SDS011;16488;52.396;10.696;2023-09-18T07:29:22;7.18;;;4.97;;
29550;SDS011;16488;52.396;10.696;2023-09-18T07:31:50;8.18;;;5.63;;
29550;SDS011;16488;52.396;10.696;2023-09-18T07:34:16;6.05;;;4.97;;
29550;SDS011;16488;52.396;10.696;2023-09-18T07:36:42;11.55;;;5.13;;
29550;SDS011;16488;52.396;10.696;2023-09-18T07:39:09;8.10;;;5.20;;
29550;SDS011;16488;52.396;10.696;2023-09-18T07:41:36;7.97;;;4.68;;
29550;SDS011;16488;52.396;10.696;2023-09-18T07:44:02;6.65;;;4.75;;
29550;SDS011;16488;52.396;10.696;2023-09-18T07:46:28;8.43;;;4.30;;
29550;SDS011;16488;52.396;10.696;2023-09-18T07:48:54;6.85;;;5.18;;
29550;SDS011;16488;52.396;10.696;2023-09-18T07:51:20;10.43;;;6.18;;
29550;SDS011;16488;52.396;10.696;2023-09-18T07:53:46;8.38;;;5.13;;
29550;SDS011;16488;52.396;10.696;2023-09-18T07:56:12;7.75;;;5.45;;
29550;SDS011;16488;52.396;10.696;2023-09-18T07:58:37;11.65;;;5.65;;
29550;SDS011;16488;52.396;10.696;2023-09-18T08:01:03;7.20;;;4.60;;
29550;SDS011;16488;52.396;10.696;2023-09-18T08:03:30;6.38;;;5.30;;
29550;SDS011;16488;52.396;10.696;2023-09-18T08:05:56;8.20;;;5.28;;
29550;SDS011;16488;52.396;10.696;2023-09-18T08:08:22;6.53;;;4.80;;
29550;SDS011;16488;52.396;10.696;2023-09-18T08:10:50;7.85;;;5.32;;
29550;SDS011;16488;52.396;10.696;2023-09-18T08:13:17;10.27;;;5.00;;
29550;SDS011;16488;52.396;10.696;2023-09-18T08:15:44;14.07;;;5.88;;
29550;SDS011;16488;52.396;10.696;2023-09-18T08:18:11;8.13;;;5.03;;
29550;SDS011;16488;52.396;10.696;2023-09-18T08:20:44;10.10;;;5.85;;
29550;SDS011;16488;52.396;10.696;2023-09-18T08:23:10;11.23;;;5.50;;
29550;SDS011;16488;52.396;10.696;2023-09-18T08:25:36;9.32;;;5.35;;
29550;SDS011;16488;52.396;10.696;2023-09-18T08:28:02;17.73;;;5.50;;
29550;SDS011;16488;52.396;10.696;2023-09-18T08:30:29;11.45;;;5.47;;
29550;SDS011;16488;52.396;10.696;2023-09-18T08:32:55;15.98;;;6.47;;
29550;SDS011;16488;52.396;10.696;2023-09-18T08:35:21;8.60;;;5.68;;
29550;SDS011;16488;52.396;10.696;2023-09-18T08:37:47;12.43;;;5.82;;
29550;SDS011;16488;52.396;10.696;2023-09-18T08:40:14;7.00;;;4.85;;
29550;SDS011;16488;52.396;10.696;2023-09-18T08:42:41;7.20;;;4.82;;
29550;SDS011;16488;52.396;10.696;2023-09-18T08:45:15;10.50;;;5.18;;
29550;SDS011;16488;52.396;10.696;2023-09-18T08:47:48;7.30;;;5.35;;
29550;SDS011;16488;52.396;10.696;2023-09-18T08:50:15;8.55;;;5.28;;
29550;SDS011;16488;52.396;10.696;2023-09-18T08:52:41;6.97;;;5.25;;
29550;SDS011;16488;52.396;10.696;2023-09-18T08:55:08;6.78;;;4.85;;
29550;SDS011;16488;52.396;10.696;2023-09-18T08:57:34;7.43;;;5.40;;
29550;SDS011;16488;52.396;10.696;2023-09-18T09:00:01;9.68;;;5.13;;
29550;SDS011;16488;52.396;10.696;2023-09-18T09:02:32;6.65;;;5.15;;
29550;SDS011;16488;52.396;10.696;2023-09-18T09:05:00;9.52;;;4.90;;
29550;SDS011;16488;52.396;10.696;2023-09-18T09:07:26;8.98;;;5.18;;
29550;SDS011;16488;52.396;10.696;2023-09-18T09:09:55;7.93;;;4.47;;
29550;SDS011;16488;52.396;10.696;2023-09-18T09:15:14;5.85;;;4.45;;
29550;SDS011;16488;52.396;10.696;2023-09-18T09:17:41;9.23;;;4.95;;
29550;SDS011;16488;52.396;10.696;2023-09-18T09:20:08;9.43;;;4.70;;
29550;SDS011;16488;52.396;10.696;2023-09-18T09:22:36;9.45;;;4.68;;
29550;SDS011;16488;52.396;10.696;2023-09-18T09:27:28;10.15;;;4.88;;
29550;SDS011;16488;52.396;10.696;2023-09-18T09:29:59;10.27;;;4.55;;
29550;SDS011;16488;52.396;10.696;2023-09-18T09:32:27;9.95;;;5.03;;
29550;SDS011;16488;52.396;10.696;2023-09-18T09:34:57;7.75;;;4.28;;
29550;SDS011;16488;52.396;10.696;2023-09-18T09:37:31;12.73;;;5.10;;
29550;SDS011;16488;52.396;10.696;2023-09-18T09:39:56;17.83;;;4.65;;
29550;SDS011;16488;52.396;10.696;2023-09-18T09:45:04;9.63;;;4.70;;
29550;SDS011;16488;52.396;10.696;2023-09-18T09:47:37;9.20;;;4.82;;
29550;SDS011;16488;52.396;10.696;2023-09-18T09:50:07;6.45;;;3.75;;
29550;SDS011;16488;52.396;10.696;2023-09-18T09:52:34;9.48;;;3.95;;
29550;SDS011;16488;52.396;10.696;2023-09-18T09:55:01;9.75;;;4.07;;
29550;SDS011;16488;52.396;10.696;2023-09-18T09:57:30;7.90;;;3.97;;
29550;SDS011;16488;52.396;10.696;2023-09-18T10:02:50;10.25;;;3.80;;
29550;SDS011;16488;52.396;10.696;2023-09-18T10:05:16;7.57;;;4.18;;
29550;SDS011;16488;52.396;10.696;2023-09-18T10:07:44;10.50;;;4.00;;
29550;SDS011;16488;52.396;10.696;2023-09-18T10:12:36;11.45;;;3.65;;
29550;SDS011;16488;52.396;10.696;2023-09-18T10:15:03;12.57;;;3.97;;
29550;SDS011;16488;52.396;10.696;2023-09-18T10:17:30;12.75;;;3.97;;
29550;SDS011;16488;52.396;10.696;2023-09-18T10:20:16;12.02;;;3.63;;
29550;SDS011;16488;52.396;10.696;2023-09-18T10:22:46;18.40;;;4.03;;
29550;SDS011;16488;52.396;10.696;2023-09-18T10:25:20;8.98;;;3.67;;
29550;SDS011;16488;52.396;10.696;2023-09-18T10:27:49;13.35;;;3.63;;
29550;SDS011;16488;52.396;10.696;2023-09-18T10:30:19;11.55;;;4.05;;
29550;SDS011;16488;52.396;10.696;2023-09-18T10:32:49;12.10;;;3.25;;
29550;SDS011;16488;52.396;10.696;2023-09-18T10:35:15;9.70;;;3.22;;
29550;SDS011;16488;52.396;10.696;2023-09-18T10:37:42;8.60;;;3.50;;
29550;SDS011;16488;52.396;10.696;2023-09-18T10:40:10;20.75;;;3.67;;
29550;SDS011;16488;52.396;10.696;2023-09-18T10:42:41;8.50;;;3.55;;
29550;SDS011;16488;52.396;10.696;2023-09-18T10:45:10;14.13;;;3.47;;
29550;SDS011;16488;52.396;10.696;2023-09-18T10:47:42;13.90;;;3.45;;
29550;SDS011;16488;52.396;10.696;2023-09-18T10:50:11;11.85;;;3.17;;
29550;SDS011;16488;52.396;10.696;2023-09-18T10:52:46;12.32;;;3.08;;
29550;SDS011;16488;52.396;10.696;2023-09-18T10:55:12;11.23;;;3.45;;
29550;SDS011;16488;52.396;10.696;2023-09-18T10:57:56;18.08;;;3.17;;
29550;SDS011;16488;52.396;10.696;2023-09-18T11:00:29;9.20;;;3.10;;
29550;SDS011;16488;52.396;10.696;2023-09-18T11:03:10;18.42;;;3.80;;
29550;SDS011;16488;52.396;10.696;2023-09-18T11:05:37;19.73;;;3.67;;
29550;SDS011;16488;52.396;10.696;2023-09-18T11:10:57;8.63;;;3.35;;
29550;SDS011;16488;52.396;10.696;2023-09-18T11:13:29;14.23;;;3.95;;
29550;SDS011;16488;52.396;10.696;2023-09-18T11:18:40;9.43;;;3.05;;
29550;SDS011;16488;52.396;10.696;2023-09-18T11:21:06;14.93;;;3.67;;
29550;SDS011;16488;52.396;10.696;2023-09-18T11:23:36;11.30;;;3.13;;
29550;SDS011;16488;52.396;10.696;2023-09-18T11:26:07;19.33;;;3.78;;
29550;SDS011;16488;52.396;10.696;2023-09-18T11:28:34;20.05;;;3.58;;
29550;SDS011;16488;52.396;10.696;2023-09-18T11:31:02;11.18;;;3.53;;
29550;SDS011;16488;52.396;10.696;2023-09-18T11:33:32;10.00;;;3.42;;
29550;SDS011;16488;52.396;10.696;2023-09-18T11:36:29;20.80;;;3.53;;
29550;SDS011;16488;52.396;10.696;2023-09-18T11:38:58;11.10;;;3.05;;
29550;SDS011;16488;52.396;10.696;2023-09-18T11:41:29;15.15;;;3.40;;
29550;SDS011;16488;52.396;10.696;2023-09-18T11:46:48;15.68;;;3.17;;
29550;SDS011;16488;52.396;10.696;2023-09-18T11:49:22;11.50;;;2.95;;
29550;SDS011;16488;52.396;10.696;2023-09-18T11:51:51;13.85;;;3.55;;
29550;SDS011;16488;52.396;10.696;2023-09-18T11:54:18;12.27;;;2.63;;
29550;SDS011;16488;52.396;10.696;2023-09-18T11:56:44;17.10;;;3.78;;
29550;SDS011;16488;52.396;10.696;2023-09-18T11:59:10;10.05;;;3.00;;
29550;SDS011;16488;52.396;10.696;2023-09-18T12:01:37;14.48;;;3.58;;
29550;SDS011;16488;52.396;10.696;2023-09-18T12:04:05;9.02;;;2.75;;
29550;SDS011;16488;52.396;10.696;2023-09-18T12:06:35;12.32;;;3.42;;
29550;SDS011;16488;52.396;10.696;2023-09-18T12:09:01;8.45;;;2.75;;
29550;SDS011;16488;52.396;10.696;2023-09-18T12:11:28;9.35;;;2.90;;
29550;SDS011;16488;52.396;10.696;2023-09-18T12:13:54;7.82;;;2.83;;
29550;SDS011;16488;52.396;10.696;2023-09-18T12:16:21;17.77;;;3.75;;
29550;SDS011;16488;52.396;10.696;2023-09-18T12:18:47;18.33;;;2.72;;
29550;SDS011;16488;52.396;10.696;2023-09-18T12:21:13;11.82;;;3.33;;
29550;SDS011;16488;52.396;10.696;2023-09-18T12:23:42;15.50;;;3.38;;
29550;SDS011;16488;52.396;10.696;2023-09-18T12:26:10;14.02;;;3.40;;
29550;SDS011;16488;52.396;10.696;2023-09-18T12:28:41;9.05;;;3.58;;
29550;SDS011;16488;52.396;10.696;2023-09-18T12:31:14;14.20;;;3.92;;
29550;SDS011;16488;52.396;10.696;2023-09-18T12:33:41;8.48;;;3.00;;
29550;SDS011;16488;52.396;10.696;2023-09-18T12:36:09;10.05;;;2.78;;
29550;SDS011;16488;52.396;10.696;2023-09-18T12:38:35;16.40;;;3.40;;
29550;SDS011;16488;52.396;10.696;2023-09-18T12:41:02;11.75;;;3.50;;
29550;SDS011;16488;52.396;10.696;2023-09-18T12:43:38;11.10;;;2.60;;
29550;SDS011;16488;52.396;10.696;2023-09-18T12:46:06;14.73;;;2.50;;
29550;SDS011;16488;52.396;10.696;2023-09-18T12:51:02;8.60;;;3.22;;
29550;SDS011;16488;52.396;10.696;2023-09-18T12:53:29;16.20;;;3.95;;
29550;SDS011;16488;52.396;10.696;2023-09-18T12:55:54;11.15;;;3.20;;
29550;SDS011;16488;52.396;10.696;2023-09-18T12:58:30;13.55;;;3.05;;
29550;SDS011;16488;52.396;10.696;2023-09-18T13:00:55;11.30;;;3.10;;
29550;SDS011;16488;52.396;10.696;2023-09-18T13:03:21;8.27;;;2.70;;
29550;SDS011;16488;52.396;10.696;2023-09-18T13:05:47;6.43;;;2.33;;
29550;SDS011;16488;52.396;10.696;2023-09-18T13:08:14;15.18;;;3.15;;
29550;SDS011;16488;52.396;10.696;2023-09-18T13:10:46;8.02;;;3.30;;
29550;SDS011;16488;52.396;10.696;2023-09-18T13:13:24;9.50;;;2.72;;
29550;SDS011;16488;52.396;10.696;2023-09-18T13:15:50;12.35;;;2.67;;
29550;SDS011;16488;52.396;10.696;2023-09-18T13:18:16;9.30;;;3.03;;
29550;SDS011;16488;52.396;10.696;2023-09-18T13:20:44;12.43;;;3.17;;
29550;SDS011;16488;52.396;10.696;2023-09-18T13:23:10;17.42;;;3.22;;
29550;SDS011;16488;52.396;10.696;2023-09-18T13:25:36;9.93;;;2.83;;
29550;SDS011;16488;52.396;10.696;2023-09-18T13:28:09;13.10;;;2.80;;
29550;SDS011;16488;52.396;10.696;2023-09-18T13:30:39;15.10;;;4.38;;
29550;SDS011;16488;52.396;10.696;2023-09-18T13:33:07;14.82;;;3.08;;
29550;SDS011;16488;52.396;10.696;2023-09-18T13:35:38;8.98;;;3.20;;
29550;SDS011;16488;52.396;10.696;2023-09-18T13:38:06;11.10;;;2.70;;
29550;SDS011;16488;52.396;10.696;2023-09-18T13:40:39;13.90;;;2.97;;
29550;SDS011;16488;52.396;10.696;2023-09-18T13:43:06;7.28;;;3.20;;
29550;SDS011;16488;52.396;10.696;2023-09-18T13:45:33;12.35;;;2.75;;
29550;SDS011;16488;52.396;10.696;2023-09-18T13:48:03;15.45;;;2.97;;
29550;SDS011;16488;52.396;10.696;2023-09-18T13:50:29;6.25;;;2.78;;
29550;SDS011;16488;52.396;10.696;2023-09-18T13:52:55;5.68;;;2.58;;
29550;SDS011;16488;52.396;10.696;2023-09-18T13:55:22;7.35;;;2.83;;
29550;SDS011;16488;52.396;10.696;2023-09-18T13:57:47;5.75;;;1.92;;
29550;SDS011;16488;52.396;10.696;2023-09-18T14:00:13;8.32;;;2.58;;
29550;SDS011;16488;52.396;10.696;2023-09-18T14:02:39;11.35;;;2.67;;
29550;SDS011;16488;52.396;10.696;2023-09-18T14:05:06;12.13;;;3.15;;
29550;SDS011;16488;52.396;10.696;2023-09-18T14:07:32;9.07;;;2.30;;
29550;SDS011;16488;52.396;10.696;2023-09-18T14:09:58;9.75;;;2.42;;
29550;SDS011;16488;52.396;10.696;2023-09-18T14:12:24;6.25;;;2.10;;
29550;SDS011;16488;52.396;10.696;2023-09-18T14:14:49;5.30;;;2.28;;
29550;SDS011;16488;52.396;10.696;2023-09-18T14:17:16;10.95;;;2.45;;
29550;SDS011;16488;52.396;10.696;2023-09-18T14:19:43;13.90;;;2.13;;
29550;SDS011;16488;52.396;10.696;2023-09-18T14:22:10;9.13;;;2.20;;
29550;SDS011;16488;52.396;10.696;2023-09-18T14:24:35;9.68;;;2.55;;
29550;SDS011;16488;52.396;10.696;2023-09-18T14:27:01;5.75;;;2.35;;
29550;SDS011;16488;52.396;10.696;2023-09-18T14:29:28;9.55;;;2.60;;
29550;SDS011;16488;52.396;10.696;2023-09-18T14:31:55;11.30;;;2.85;;
29550;SDS011;16488;52.396;10.696;2023-09-18T14:34:21;6.20;;;2.50;;
29550;SDS011;16488;52.396;10.696;2023-09-18T14:36:47;9.82;;;2.25;;
29550;SDS011;16488;52.396;10.696;2023-09-18T14:39:13;11.48;;;3.20;;
29550;SDS011;16488;52.396;10.696;2023-09-18T14:41:38;9.45;;;2.97;;
29550;SDS011;16488;52.396;10.696;2023-09-18T14:44:04;7.25;;;2.42;;
29550;SDS011;16488;52.396;10.696;2023-09-18T14:46:31;6.85;;;2.30;;
29550;SDS011;16488;52.396;10.696;2023-09-18T14:49:03;9.82;;;2.92;;
29550;SDS011;16488;52.396;10.696;2023-09-18T14:51:30;6.00;;;2.50;;
29550;SDS011;16488;52.396;10.696;2023-09-18T14:53:56;9.43;;;2.70;;
29550;SDS011;16488;52.396;10.696;2023-09-18T14:56:23;13.13;;;2.95;;
29550;SDS011;16488;52.396;10.696;2023-09-18T14:58:48;12.07;;;2.75;;
29550;SDS011;16488;52.396;10.696;2023-09-18T15:01:16;14.95;;;3.20;;
29550;SDS011;16488;52.396;10.696;2023-09-18T15:03:42;10.23;;;2.70;;
29550;SDS011;16488;52.396;10.696;2023-09-18T15:06:09;5.40;;;2.08;;
29550;SDS011;16488;52.396;10.696;2023-09-18T15:08:35;6.30;;;2.28;;
29550;SDS011;16488;52.396;10.696;2023-09-18T15:11:01;7.13;;;2.38;;
29550;SDS011;16488;52.396;10.696;2023-09-18T15:13:28;14.02;;;2.70;;